Axstal, Sweden

7:15 AM CET on October 31, 2014 (GMT +0100)
Vadstena | Change Station
CLOSE
Current Station
Personal Weather Station
Location: Vadstena, Vadstena
Elevation: 300 ft
Nearby Weather Stations

Elev 300 ft 58.45 °N, 14.90 °E | Updated 9 seconds ago

Mostly Cloudy
Mostly Cloudy
35.8 °F
Feels Like 36 °F
N
0.0
Wind Variable Wind from South
Gusts 0.0 mph

Today
High -- | Low -- °F
--% Chance of Precip.
Yesterday
High -- | Low -- °F
Precip. -- in
7:15 AM 4:14 PM
First Quarter, 52% visible
Pressure 30.24 in
Visibility 0.9 miles
Clouds Few 11000 ft
Mostly Cloudy 15000 ft
Windchill 36 °F
Dew Point 35 °F
Humidity 96%
Rainfall 0.00 in
Snow Depth Not available.
UV 0 out of 12
Pollen Not available.
Air Quality Not available.
Flu Activity Not available.
METAR ESGR 310550Z AUTO 00000KT 1400 R01/P2000N R19/P2000N BR FEW110/// BKN150/// 00/M00 Q1024

More Conditions Fewer Conditions

Pressure 30.24 in
Visibility 0.9 miles
Clouds Few 11000 ft
Mostly Cloudy 15000 ft
Windchill 36 °F
Dew Point 35 °F
Humidity 96%
Rainfall 0.00 in
Snow Depth Not available.
UV 0 out of 12
Pollen Not available.
Air Quality Not available.
Flu Activity Not available.
METAR ESGR 310550Z AUTO 00000KT 1400 R01/P2000N R19/P2000N BR FEW110/// BKN150/// 00/M00 Q1024

More Conditions Fewer Conditions

10-Day Weather Forecast

Almanac

Astronomy

Oct. 31, 2014 Rise Set
Actual Time
Civil Twilight
Nautical Twilight
Astronomical Twilight
Moon
Length of Visible Light
Length of Day
Tomorrow will be .
, % of the Moon is Illuminated

Today's Extremes

Country Highs Country Lows

Community

WunderPhotos

Upload Photos

1,766,571 photos uploaded!

WunderBlogs® & News

Nearby

Air Quality

  Air Quality AQ Index Pollutant
Not available.

Snow Depth

Station Depth Elevation

Earthquake Activity

City Distance Mag. Time & Date
Minimum magnitude displayed is 2.5.

Coastal Water Temperatures

Place Temperature

Nearby Weather Stations